createdAt,value
2023-07-03T00:02:02.283Z,8.57
2023-07-03T00:04:29.872Z,9.27
2023-07-03T00:06:57.092Z,9.17
2023-07-03T00:09:24.576Z,8.60
2023-07-03T00:11:51.774Z,8.30
2023-07-03T00:14:19.214Z,8.57
2023-07-03T00:16:46.476Z,9.27
2023-07-03T00:19:14.890Z,8.83
2023-07-03T00:21:45.067Z,9.23
2023-07-03T00:24:13.133Z,8.83
2023-07-03T00:26:40.967Z,8.33
2023-07-03T00:29:08.481Z,9.83
2023-07-03T00:31:36.416Z,8.30
2023-07-03T00:34:04.167Z,8.27
2023-07-03T00:36:31.439Z,9.48
2023-07-03T00:38:59.848Z,8.97
2023-07-03T00:41:27.601Z,8.10
2023-07-03T00:43:55.141Z,8.98
2023-07-03T00:46:22.420Z,9.10
2023-07-03T00:48:50.125Z,8.30
2023-07-03T00:51:18.112Z,8.37
2023-07-03T00:53:45.974Z,8.77
2023-07-03T00:56:13.438Z,9.30
2023-07-03T00:58:41.223Z,8.93
2023-07-03T01:01:27.058Z,8.73
2023-07-03T01:04:01.471Z,8.97
2023-07-03T01:06:36.725Z,8.70
2023-07-03T01:09:04.681Z,8.60
2023-07-03T01:11:32.509Z,9.20
2023-07-03T01:14:03.095Z,8.40
2023-07-03T01:16:33.159Z,8.73
2023-07-03T01:19:02.241Z,8.00
2023-07-03T01:21:48.477Z,9.27
2023-07-03T01:24:29.091Z,8.70
2023-07-03T01:26:57.050Z,9.17
2023-07-03T01:29:25.664Z,8.93
2023-07-03T01:31:54.716Z,8.37
2023-07-03T01:34:23.730Z,9.83
2023-07-03T01:36:51.454Z,9.17
2023-07-03T01:39:19.659Z,9.50
2023-07-03T01:41:47.114Z,8.70
2023-07-03T01:44:14.621Z,8.77
2023-07-03T01:46:43.073Z,8.20
2023-07-03T01:49:15.300Z,8.17
2023-07-03T01:52:10.387Z,8.63
2023-07-03T01:54:54.590Z,8.63
2023-07-03T01:57:34.666Z,8.43
2023-07-03T02:00:05.473Z,7.87
2023-07-03T02:02:42.099Z,8.47
2023-07-03T02:05:17.626Z,8.03
2023-07-03T02:07:48.830Z,8.67
2023-07-03T02:10:16.565Z,8.43
2023-07-03T02:12:48.516Z,8.83
2023-07-03T02:15:20.343Z,8.03
2023-07-03T02:17:48.350Z,8.70
2023-07-03T02:20:16.107Z,8.80
2023-07-03T02:22:43.851Z,8.77
2023-07-03T02:25:12.459Z,9.30
2023-07-03T02:27:41.486Z,8.30
2023-07-03T02:30:09.207Z,8.60
2023-07-03T02:32:38.494Z,8.63
2023-07-03T02:35:06.822Z,8.80
2023-07-03T02:37:34.521Z,8.70
2023-07-03T02:40:02.460Z,8.20
2023-07-03T02:42:31.009Z,8.70
2023-07-03T02:45:01.472Z,8.30
2023-07-03T02:47:32.971Z,8.57
2023-07-03T02:50:00.440Z,8.37
2023-07-03T02:52:28.248Z,9.03
2023-07-03T02:54:55.714Z,7.97
2023-07-03T02:57:23.626Z,9.27
2023-07-03T02:59:51.257Z,8.37
2023-07-03T03:02:19.867Z,8.33
2023-07-03T03:04:49.254Z,8.83
2023-07-03T03:07:16.995Z,9.37
2023-07-03T03:09:44.386Z,9.23
2023-07-03T03:12:12.669Z,7.83
2023-07-03T03:14:40.846Z,8.53
2023-07-03T03:17:08.417Z,9.17
2023-07-03T03:19:35.743Z,8.57
2023-07-03T03:22:03.410Z,8.70
2023-07-03T03:24:31.034Z,8.33
2023-07-03T03:26:58.722Z,8.63
2023-07-03T03:29:25.980Z,8.47
2023-07-03T03:31:53.701Z,8.23
2023-07-03T03:34:21.144Z,8.47
2023-07-03T03:36:48.659Z,8.57
2023-07-03T03:39:15.942Z,8.27
2023-07-03T03:41:43.478Z,8.20
2023-07-03T03:44:12.404Z,7.97
2023-07-03T03:46:40.976Z,7.57
2023-07-03T03:49:10.653Z,8.80
2023-07-03T03:51:38.960Z,8.73
2023-07-03T03:54:06.504Z,8.33
2023-07-03T03:56:34.266Z,7.90
2023-07-03T03:59:03.110Z,7.70
2023-07-03T04:01:31.431Z,8.53
2023-07-03T04:03:58.699Z,9.30
2023-07-03T04:06:27.802Z,8.60
2023-07-03T04:08:55.855Z,7.77
2023-07-03T04:11:23.429Z,8.03
2023-07-03T04:13:50.796Z,7.72
2023-07-03T04:16:18.558Z,8.53
2023-07-03T04:18:45.802Z,8.03
2023-07-03T04:21:13.426Z,8.07
2023-07-03T04:23:40.891Z,7.95
2023-07-03T04:26:08.693Z,9.70
2023-07-03T04:28:36.022Z,8.27
2023-07-03T04:31:03.936Z,7.70
2023-07-03T04:33:31.255Z,7.70
2023-07-03T04:35:58.761Z,7.68
2023-07-03T04:38:26.268Z,7.60
2023-07-03T04:40:55.126Z,7.88
2023-07-03T04:43:22.896Z,8.37
2023-07-03T04:45:53.007Z,8.15
2023-07-03T04:48:22.050Z,8.02
2023-07-03T04:50:51.151Z,7.55
2023-07-03T04:53:22.513Z,7.75
2023-07-03T04:55:51.680Z,7.60
2023-07-03T04:58:20.077Z,7.78
2023-07-03T05:00:48.369Z,7.88
2023-07-03T05:03:16.721Z,7.60
2023-07-03T05:05:44.685Z,7.45
2023-07-03T05:08:12.258Z,8.02
2023-07-03T05:10:39.802Z,7.38
2023-07-03T05:13:07.126Z,8.15
2023-07-03T05:15:35.193Z,7.22
2023-07-03T05:18:02.937Z,8.13
2023-07-03T05:20:31.079Z,7.63
2023-07-03T05:22:58.636Z,7.75
2023-07-03T05:25:26.360Z,6.80
2023-07-03T05:27:53.631Z,8.30
2023-07-03T05:30:21.685Z,6.80
2023-07-03T05:32:49.295Z,7.10
2023-07-03T05:35:17.033Z,6.32
2023-07-03T05:37:44.635Z,7.10
2023-07-03T05:40:16.590Z,7.53
2023-07-03T05:42:44.717Z,6.97
2023-07-03T05:45:12.596Z,6.32
2023-07-03T05:47:40.056Z,6.18
2023-07-03T05:50:08.466Z,5.85
2023-07-03T05:52:37.588Z,6.15
2023-07-03T05:55:06.307Z,7.07
2023-07-03T05:57:33.588Z,6.13
2023-07-03T06:00:01.241Z,6.00
2023-07-03T06:02:28.745Z,6.70
2023-07-03T06:04:56.498Z,7.70
2023-07-03T06:07:23.834Z,6.53
2023-07-03T06:09:52.205Z,5.90
2023-07-03T06:12:20.035Z,6.40
2023-07-03T06:14:48.009Z,6.13
2023-07-03T06:17:15.839Z,6.63
2023-07-03T06:19:44.687Z,6.65
2023-07-03T06:22:12.359Z,5.80
2023-07-03T06:24:40.692Z,5.75
2023-07-03T06:27:08.436Z,6.40
2023-07-03T06:29:36.552Z,5.90
2023-07-03T06:32:04.411Z,6.68
2023-07-03T06:34:32.605Z,6.05
2023-07-03T06:37:01.637Z,5.57
2023-07-03T06:39:29.780Z,5.72
2023-07-03T06:41:57.463Z,5.85
2023-07-03T06:44:25.418Z,5.95
2023-07-03T06:46:53.339Z,6.35
2023-07-03T06:49:23.789Z,5.70
2023-07-03T06:51:51.121Z,4.85
2023-07-03T06:54:19.418Z,5.47
2023-07-03T06:56:47.148Z,6.32
2023-07-03T06:59:15.216Z,5.85
2023-07-03T07:01:43.276Z,5.18
2023-07-03T07:04:12.513Z,5.43
2023-07-03T07:06:41.106Z,5.00
2023-07-03T07:09:09.088Z,4.88
2023-07-03T07:11:37.656Z,4.72
2023-07-03T07:14:07.080Z,4.65
2023-07-03T07:16:38.426Z,5.78
2023-07-03T07:19:09.607Z,4.88
2023-07-03T07:21:39.585Z,4.55
2023-07-03T07:24:19.448Z,5.50
2023-07-03T07:26:48.278Z,4.72
2023-07-03T07:29:16.269Z,5.50
2023-07-03T07:31:44.110Z,5.00
2023-07-03T07:34:12.632Z,4.93
2023-07-03T07:36:40.833Z,4.38
2023-07-03T07:39:09.591Z,5.10
2023-07-03T07:41:37.746Z,5.07
2023-07-03T07:44:06.528Z,5.55
2023-07-03T07:46:36.737Z,5.45
2023-07-03T07:49:05.447Z,4.95
2023-07-03T07:51:33.390Z,5.18
2023-07-03T07:54:02.294Z,5.50
2023-07-03T07:56:31.782Z,5.38
2023-07-03T07:59:02.429Z,5.43
2023-07-03T08:01:30.294Z,5.15
2023-07-03T08:03:58.687Z,6.22
2023-07-03T08:06:26.552Z,5.57
2023-07-03T08:08:54.603Z,5.18
2023-07-03T08:11:22.641Z,5.20
2023-07-03T08:13:50.770Z,5.22
2023-07-03T08:16:19.086Z,5.30
2023-07-03T08:18:49.935Z,5.53
2023-07-03T08:21:18.697Z,5.00
2023-07-03T08:23:47.036Z,5.00
2023-07-03T08:26:19.401Z,4.88
2023-07-03T08:28:48.133Z,5.55
2023-07-03T08:31:16.754Z,6.38
2023-07-03T08:33:45.023Z,4.95
2023-07-03T08:38:44.286Z,4.70
2023-07-03T08:41:14.823Z,5.47
2023-07-03T08:43:47.078Z,5.65
2023-07-03T08:46:21.267Z,4.80
2023-07-03T08:48:52.816Z,5.03
2023-07-03T08:51:23.707Z,5.05
2023-07-03T08:54:08.039Z,4.75
2023-07-03T08:56:36.251Z,5.03
2023-07-03T08:59:05.865Z,4.75
2023-07-03T09:01:48.816Z,5.13
2023-07-03T09:04:18.084Z,5.55
2023-07-03T09:06:55.220Z,5.07
2023-07-03T09:09:30.988Z,4.63
2023-07-03T09:12:03.437Z,5.32
2023-07-03T09:14:35.134Z,5.30
2023-07-03T09:17:03.444Z,5.35
2023-07-03T09:19:31.967Z,5.22
2023-07-03T09:22:03.695Z,6.18
2023-07-03T09:24:44.890Z,6.05
2023-07-03T09:27:22.211Z,6.90
2023-07-03T09:29:51.013Z,5.60
2023-07-03T09:32:33.126Z,5.35
2023-07-03T09:35:04.274Z,5.93
2023-07-03T09:37:32.977Z,6.53
2023-07-03T09:40:01.168Z,5.93
2023-07-03T09:42:29.695Z,6.72
2023-07-03T09:44:58.131Z,6.07
2023-07-03T09:47:33.079Z,7.03
2023-07-03T09:50:08.015Z,5.45
2023-07-03T09:52:35.773Z,7.10
2023-07-03T09:55:04.652Z,6.50
2023-07-03T09:57:35.133Z,6.88
2023-07-03T10:00:23.025Z,6.90
2023-07-03T10:08:07.879Z,8.15
2023-07-03T10:13:16.187Z,6.90
2023-07-03T10:15:44.154Z,8.52
2023-07-03T10:18:15.206Z,7.68
2023-07-03T10:20:45.334Z,7.00
2023-07-03T10:23:23.466Z,9.10
2023-07-03T10:25:57.049Z,8.55
2023-07-03T10:28:32.669Z,7.53
2023-07-03T10:31:05.467Z,7.97
2023-07-03T10:33:56.717Z,8.13
2023-07-03T10:36:28.915Z,7.68
2023-07-03T10:39:12.803Z,8.23
2023-07-03T10:41:59.093Z,7.93
2023-07-03T10:44:34.614Z,7.90
2023-07-03T10:47:24.581Z,8.93
2023-07-03T10:49:52.473Z,7.55
2023-07-03T10:52:34.676Z,7.85
2023-07-03T10:55:32.859Z,8.88
2023-07-03T10:58:24.379Z,8.20
2023-07-03T11:01:03.125Z,9.20
2023-07-03T11:04:22.701Z,8.43
2023-07-03T11:07:34.116Z,8.93
2023-07-03T11:10:17.509Z,8.65
2023-07-03T11:13:07.377Z,8.48
2023-07-03T11:16:07.315Z,8.02
2023-07-03T11:24:18.571Z,11.90
2023-07-03T11:30:02.637Z,9.23
2023-07-03T11:32:34.965Z,8.00
2023-07-03T11:41:00.513Z,9.85
2023-07-03T11:43:34.632Z,11.75
2023-07-03T11:46:05.786Z,9.35
2023-07-03T11:48:38.432Z,9.73
2023-07-03T11:51:12.398Z,10.45
2023-07-03T11:53:46.047Z,9.57
2023-07-03T11:56:40.833Z,10.48
2023-07-03T11:59:24.559Z,9.77
2023-07-03T12:02:15.151Z,8.82
2023-07-03T12:04:49.064Z,9.30
2023-07-03T12:07:20.940Z,8.68
2023-07-03T12:09:49.424Z,9.20
2023-07-03T12:12:17.236Z,9.52
2023-07-03T12:14:52.472Z,8.40
2023-07-03T12:17:25.247Z,8.65
2023-07-03T12:20:14.063Z,8.00
2023-07-03T12:22:44.949Z,9.00
2023-07-03T12:25:14.526Z,9.23
2023-07-03T12:27:42.269Z,8.68
2023-07-03T12:30:11.937Z,9.82
2023-07-03T12:32:39.990Z,9.25
2023-07-03T12:35:19.901Z,9.85
2023-07-03T12:37:52.864Z,10.23
2023-07-03T12:40:22.061Z,9.00
2023-07-03T12:42:50.733Z,9.23
2023-07-03T12:45:24.797Z,9.65
2023-07-03T12:48:06.436Z,8.70
2023-07-03T12:50:36.474Z,10.10
2023-07-03T12:53:05.447Z,9.80
2023-07-03T12:55:34.948Z,8.95
2023-07-03T12:58:03.359Z,9.35
2023-07-03T13:00:32.903Z,8.52
2023-07-03T13:03:05.494Z,9.07
2023-07-03T13:05:36.298Z,8.80
2023-07-03T13:08:07.431Z,9.40
2023-07-03T13:10:35.560Z,8.65
2023-07-03T13:13:11.895Z,8.48
2023-07-03T13:15:42.109Z,8.45
2023-07-03T13:18:21.443Z,8.18
2023-07-03T13:20:57.285Z,8.73
2023-07-03T13:23:32.582Z,9.07
2023-07-03T13:26:01.572Z,8.55
2023-07-03T13:28:31.299Z,9.05
2023-07-03T13:31:24.820Z,8.32
2023-07-03T13:34:09.246Z,8.77
2023-07-03T13:36:39.308Z,9.57
2023-07-03T13:39:10.441Z,8.30
2023-07-03T13:41:39.700Z,8.07
2023-07-03T13:44:12.490Z,9.32
2023-07-03T13:46:41.574Z,8.00
2023-07-03T13:49:10.065Z,8.50
2023-07-03T13:51:42.027Z,7.85
2023-07-03T13:54:12.643Z,7.72
2023-07-03T13:56:42.310Z,8.48
2023-07-03T13:59:10.818Z,8.38
2023-07-03T14:01:40.022Z,8.77
2023-07-03T14:04:08.969Z,8.48
2023-07-03T14:06:38.207Z,8.25
2023-07-03T14:09:06.624Z,8.77
2023-07-03T14:11:34.993Z,7.72
2023-07-03T14:14:03.227Z,10.13
2023-07-03T14:16:31.399Z,8.38
2023-07-03T14:18:59.973Z,8.73
2023-07-03T14:21:28.392Z,9.30
2023-07-03T14:23:56.705Z,7.28
2023-07-03T14:26:26.136Z,7.35
2023-07-03T14:28:54.725Z,7.53
2023-07-03T14:31:23.408Z,6.72
2023-07-03T14:33:51.761Z,7.07
2023-07-03T14:36:20.758Z,6.38
2023-07-03T14:38:49.365Z,7.53
2023-07-03T14:41:17.795Z,7.10
2023-07-03T14:43:45.962Z,7.97
2023-07-03T14:46:14.208Z,7.28
2023-07-03T14:48:42.193Z,6.75
2023-07-03T14:51:10.287Z,8.43
2023-07-03T14:53:39.008Z,8.00
2023-07-03T14:56:07.893Z,6.95
2023-07-03T14:58:36.525Z,7.20
2023-07-03T15:01:05.384Z,7.75
2023-07-03T15:03:34.076Z,7.00
2023-07-03T15:06:07.413Z,7.55
2023-07-03T15:08:35.541Z,7.55
2023-07-03T15:11:03.810Z,6.85
2023-07-03T15:13:32.243Z,7.95
2023-07-03T15:16:00.791Z,6.95
2023-07-03T15:18:29.005Z,7.82
2023-07-03T15:20:57.640Z,7.00
2023-07-03T15:23:26.260Z,7.93
2023-07-03T15:25:54.925Z,8.68
2023-07-03T15:28:22.876Z,7.03
2023-07-03T15:30:53.555Z,7.57
2023-07-03T15:33:21.452Z,7.85
2023-07-03T15:35:56.566Z,7.65
2023-07-03T15:38:24.805Z,7.45
2023-07-03T15:40:54.921Z,7.15
2023-07-03T15:43:23.164Z,7.47
2023-07-03T15:46:05.577Z,7.63
2023-07-03T15:48:35.060Z,7.90
2023-07-03T15:51:06.011Z,6.80
2023-07-03T15:53:34.281Z,6.82
2023-07-03T15:56:03.817Z,7.38
2023-07-03T15:58:33.186Z,7.05
2023-07-03T16:01:02.531Z,7.13
2023-07-03T16:03:31.199Z,7.38
2023-07-03T16:06:00.024Z,7.35
2023-07-03T16:08:29.179Z,6.97
2023-07-03T16:10:57.458Z,7.00
2023-07-03T16:13:26.942Z,8.13
2023-07-03T16:15:56.996Z,7.35
2023-07-03T16:18:25.281Z,7.72
2023-07-03T16:20:59.676Z,6.43
2023-07-03T16:23:28.899Z,7.85
2023-07-03T16:26:02.178Z,7.10
2023-07-03T16:28:33.069Z,6.80
2023-07-03T16:31:04.647Z,6.40
2023-07-03T16:33:34.492Z,7.00
2023-07-03T16:36:05.515Z,6.72
2023-07-03T16:38:34.792Z,6.80
2023-07-03T16:41:06.377Z,7.20
2023-07-03T16:43:36.483Z,6.70
2023-07-03T16:46:06.202Z,7.10
2023-07-03T16:48:35.803Z,6.90
2023-07-03T16:51:06.119Z,6.35
2023-07-03T16:53:36.351Z,7.20
2023-07-03T16:56:09.731Z,6.88
2023-07-03T16:58:38.201Z,7.50
2023-07-03T17:01:06.806Z,7.47
2023-07-03T17:03:35.579Z,7.97
2023-07-03T17:06:05.845Z,7.30
2023-07-03T17:08:34.532Z,6.03
2023-07-03T17:11:04.140Z,6.60
2023-07-03T17:13:33.363Z,7.55
2023-07-03T17:16:02.490Z,7.30
2023-07-03T17:18:30.747Z,8.50
2023-07-03T17:20:59.477Z,7.82
2023-07-03T17:23:28.759Z,6.05
2023-07-03T17:26:00.724Z,6.95
2023-07-03T17:28:29.790Z,7.13
2023-07-03T17:30:58.622Z,6.90
2023-07-03T17:33:28.193Z,7.63
2023-07-03T17:35:57.246Z,8.00
2023-07-03T17:38:27.424Z,7.05
2023-07-03T17:40:57.503Z,7.15
2023-07-03T17:43:25.909Z,6.57
2023-07-03T17:45:55.514Z,7.75
2023-07-03T17:48:24.816Z,6.75
2023-07-03T17:50:53.870Z,7.28
2023-07-03T17:53:25.082Z,6.30
2023-07-03T17:55:53.873Z,8.07
2023-07-03T17:58:23.884Z,7.40
2023-07-03T18:00:54.898Z,7.93
2023-07-03T18:03:23.700Z,7.65
2023-07-03T18:05:56.465Z,6.15
2023-07-03T18:08:25.689Z,6.60
2023-07-03T18:10:55.496Z,7.20
2023-07-03T18:13:23.990Z,5.65
2023-07-03T18:15:52.927Z,5.55
2023-07-03T18:18:22.742Z,5.40
2023-07-03T18:20:51.863Z,6.03
2023-07-03T18:23:20.372Z,5.28
2023-07-03T18:25:49.828Z,5.75
2023-07-03T18:28:19.019Z,5.47
2023-07-03T18:30:47.474Z,5.60
2023-07-03T18:33:16.248Z,5.13
2023-07-03T18:35:45.006Z,4.82
2023-07-03T18:38:12.743Z,5.53
2023-07-03T18:40:40.918Z,5.15
2023-07-03T18:43:09.038Z,5.70
2023-07-03T18:45:37.504Z,5.93
2023-07-03T18:48:05.502Z,6.38
2023-07-03T18:50:34.254Z,4.90
2023-07-03T18:53:02.958Z,5.15
2023-07-03T18:55:31.112Z,5.50
2023-07-03T18:58:02.286Z,5.82
2023-07-03T19:00:30.511Z,4.95
2023-07-03T19:02:58.595Z,5.97
2023-07-03T19:05:27.136Z,6.28
2023-07-03T19:07:55.148Z,4.28
2023-07-03T19:10:23.475Z,4.93
2023-07-03T19:12:51.857Z,5.20
2023-07-03T19:15:21.132Z,4.80
2023-07-03T19:17:50.688Z,4.90
2023-07-03T19:20:21.574Z,4.55
2023-07-03T19:22:50.628Z,4.97
2023-07-03T19:25:21.060Z,4.68
2023-07-03T19:27:49.831Z,4.78
2023-07-03T19:30:18.915Z,4.97
2023-07-03T19:32:46.874Z,5.80
2023-07-03T19:35:15.056Z,5.03
2023-07-03T19:37:43.009Z,5.00
2023-07-03T19:40:12.462Z,5.18
2023-07-03T19:42:40.635Z,5.20
2023-07-03T19:45:09.326Z,5.32
2023-07-03T19:47:37.970Z,4.65
2023-07-03T19:50:11.221Z,5.13
2023-07-03T19:52:39.474Z,6.45
2023-07-03T19:55:07.915Z,4.95
2023-07-03T19:57:36.057Z,5.25
2023-07-03T20:00:05.987Z,4.70
2023-07-03T20:02:35.935Z,5.00
2023-07-03T20:05:04.258Z,4.82
2023-07-03T20:07:32.515Z,5.75
2023-07-03T20:10:01.004Z,5.03
2023-07-03T20:12:29.064Z,4.85
2023-07-03T20:14:57.487Z,5.40
2023-07-03T20:17:26.435Z,4.85
2023-07-03T20:19:55.881Z,5.43
2023-07-03T20:22:23.869Z,5.47
2023-07-03T20:24:52.462Z,4.75
2023-07-03T20:27:20.728Z,5.47
2023-07-03T20:29:51.055Z,4.95
2023-07-03T20:32:20.114Z,4.70
2023-07-03T20:34:52.230Z,5.32
2023-07-03T20:37:20.779Z,4.60
2023-07-03T20:39:49.600Z,4.78
2023-07-03T20:42:18.258Z,5.00
2023-07-03T20:44:49.294Z,5.65
2023-07-03T20:47:17.536Z,5.22
2023-07-03T20:49:46.875Z,5.43
2023-07-03T20:52:20.999Z,5.18
2023-07-03T20:55:23.916Z,5.22
2023-07-03T20:57:52.680Z,5.70
2023-07-03T21:00:21.997Z,4.78
2023-07-03T21:02:51.783Z,4.97
2023-07-03T21:05:21.568Z,6.10
2023-07-03T21:07:50.281Z,5.32
2023-07-03T21:10:18.486Z,5.00
2023-07-03T21:12:46.826Z,5.30
2023-07-03T21:15:15.038Z,5.75
2023-07-03T21:17:43.040Z,5.57
2023-07-03T21:20:11.798Z,5.20
2023-07-03T21:22:39.940Z,6.68
2023-07-03T21:25:08.496Z,6.05
2023-07-03T21:27:36.531Z,6.03
2023-07-03T21:30:04.844Z,4.68
2023-07-03T21:32:32.943Z,5.47
2023-07-03T21:35:01.338Z,5.60
2023-07-03T21:37:31.717Z,5.40
2023-07-03T21:40:00.949Z,5.85
2023-07-03T21:42:28.978Z,5.50
2023-07-03T21:44:57.310Z,5.53
2023-07-03T21:47:25.289Z,5.88
2023-07-03T21:49:53.407Z,4.85
2023-07-03T21:52:22.249Z,6.95
2023-07-03T21:54:50.296Z,5.63
2023-07-03T21:57:19.590Z,6.47
2023-07-03T21:59:50.471Z,6.47
2023-07-03T22:02:18.259Z,7.07
2023-07-03T22:04:46.550Z,6.13
2023-07-03T22:07:15.125Z,5.85
2023-07-03T22:09:43.194Z,6.45
2023-07-03T22:12:12.085Z,6.43
2023-07-03T22:14:40.438Z,5.93
2023-07-03T22:17:08.372Z,6.45
2023-07-03T22:19:38.341Z,5.85
2023-07-03T22:22:07.975Z,6.07
2023-07-03T22:24:36.423Z,6.82
2023-07-03T22:27:05.346Z,7.13
2023-07-03T22:29:33.345Z,7.00
2023-07-03T22:32:01.177Z,6.07
2023-07-03T22:34:29.249Z,6.22
2023-07-03T22:36:57.020Z,5.70
2023-07-03T22:39:25.028Z,6.72
2023-07-03T22:41:52.791Z,6.65
2023-07-03T22:44:21.031Z,6.40
2023-07-03T22:46:51.792Z,6.18
2023-07-03T22:49:25.039Z,6.60
2023-07-03T22:51:53.839Z,6.47
2023-07-03T22:54:22.776Z,5.97
2023-07-03T22:56:50.669Z,6.00
2023-07-03T22:59:18.656Z,6.32
2023-07-03T23:01:49.182Z,6.40
2023-07-03T23:04:18.493Z,6.18
2023-07-03T23:06:47.206Z,6.53
2023-07-03T23:09:15.584Z,6.75
2023-07-03T23:11:43.181Z,6.70
2023-07-03T23:14:11.551Z,6.65
2023-07-03T23:16:39.389Z,7.25
2023-07-03T23:19:09.405Z,6.18
2023-07-03T23:21:38.356Z,6.93
2023-07-03T23:24:07.303Z,6.47
2023-07-03T23:26:35.107Z,6.30
2023-07-03T23:29:03.160Z,6.53
2023-07-03T23:31:30.851Z,7.17
2023-07-03T23:33:58.996Z,6.75
2023-07-03T23:36:27.483Z,6.15
2023-07-03T23:38:56.034Z,7.45
2023-07-03T23:41:24.774Z,6.90
2023-07-03T23:43:53.160Z,6.73
2023-07-03T23:46:26.987Z,6.97
2023-07-03T23:48:55.384Z,5.95
2023-07-03T23:51:23.058Z,7.43
2023-07-03T23:53:51.073Z,6.15
2023-07-03T23:56:19.699Z,6.82
2023-07-03T23:58:48.799Z,6.68
